createdAt,value
2019-04-14T00:01:50.074Z,99.90
2019-04-14T00:04:22.596Z,99.90
2019-04-14T00:06:50.454Z,99.90
2019-04-14T00:09:20.461Z,99.90
2019-04-14T00:11:48.256Z,99.90
2019-04-14T00:14:16.465Z,99.90
2019-04-14T00:16:44.582Z,99.90
2019-04-14T00:19:13.042Z,99.90
2019-04-14T00:21:41.092Z,99.90
2019-04-14T00:24:09.490Z,99.90
2019-04-14T00:26:37.933Z,99.90
2019-04-14T00:29:06.683Z,99.90
2019-04-14T00:31:34.960Z,99.90
2019-04-14T00:34:05.151Z,99.90
2019-04-14T00:36:41.613Z,99.90
2019-04-14T00:39:13.924Z,99.90
2019-04-14T00:41:48.887Z,99.90
2019-04-14T00:44:14.671Z,99.90
2019-04-14T00:46:53.857Z,99.90
2019-04-14T00:49:22.187Z,99.90
2019-04-14T00:51:50.735Z,99.90
2019-04-14T00:54:19.533Z,99.90
2019-04-14T00:56:47.674Z,99.90
2019-04-14T00:59:15.726Z,99.90
2019-04-14T01:01:43.802Z,99.90
2019-04-14T01:04:12.253Z,99.90
2019-04-14T01:06:40.449Z,99.90
2019-04-14T01:09:09.265Z,99.90
2019-04-14T01:11:37.779Z,99.90
2019-04-14T01:14:05.881Z,99.90
2019-04-14T01:16:34.085Z,99.90
2019-04-14T01:19:02.640Z,99.90
2019-04-14T01:21:30.732Z,99.90
2019-04-14T01:23:58.903Z,99.90
2019-04-14T01:26:26.774Z,99.90
2019-04-14T01:29:14.410Z,99.90
2019-04-14T01:31:42.515Z,99.90
2019-04-14T01:34:10.790Z,99.90
2019-04-14T01:36:38.697Z,99.90
2019-04-14T01:39:06.980Z,99.90
2019-04-14T01:41:34.795Z,99.90
2019-04-14T01:44:02.529Z,99.90
2019-04-14T01:46:32.742Z,99.90
2019-04-14T01:49:00.631Z,99.90
2019-04-14T01:51:35.923Z,99.90
2019-04-14T01:54:23.496Z,99.90
2019-04-14T01:56:55.922Z,99.90
2019-04-14T01:59:24.147Z,99.90
2019-04-14T02:01:56.511Z,99.90
2019-04-14T02:04:24.578Z,99.90
2019-04-14T02:06:52.702Z,99.90
2019-04-14T02:09:20.867Z,99.90
2019-04-14T02:11:48.812Z,99.90
2019-04-14T02:14:16.846Z,99.90
2019-04-14T02:16:50.201Z,99.90
2019-04-14T02:19:15.239Z,99.90
2019-04-14T02:21:43.441Z,99.90
2019-04-14T02:24:11.395Z,99.90
2019-04-14T02:26:39.438Z,99.90
2019-04-14T02:29:07.937Z,99.90
2019-04-14T02:32:07.140Z,99.90
2019-04-14T02:34:42.309Z,99.90
2019-04-14T02:37:08.099Z,99.90
2019-04-14T02:39:38.660Z,99.90
2019-04-14T02:42:15.446Z,99.90
2019-04-14T02:44:38.313Z,99.90
2019-04-14T02:49:38.717Z,99.90
2019-04-14T02:51:58.622Z,99.90
2019-04-14T02:54:36.401Z,99.90
2019-04-14T02:59:22.842Z,99.90
2019-04-14T03:02:09.677Z,99.90
2019-04-14T03:07:02.577Z,99.90
2019-04-14T03:09:32.058Z,99.90
2019-04-14T03:11:58.332Z,99.90
2019-04-14T03:14:27.661Z,99.90
2019-04-14T03:17:21.095Z,99.90
2019-04-14T03:19:48.525Z,99.90
2019-04-14T03:37:59.501Z,99.90
2019-04-14T03:40:34.021Z,99.90
2019-04-14T03:43:13.625Z,99.90
2019-04-14T03:45:46.803Z,99.90
2019-04-14T03:50:29.199Z,99.90
2019-04-14T03:53:07.863Z,99.90
2019-04-14T03:55:16.369Z,99.90
2019-04-14T03:57:32.719Z,99.90
2019-04-14T04:00:00.698Z,99.90
2019-04-14T04:02:29.428Z,99.90
2019-04-14T04:04:57.723Z,99.90
2019-04-14T04:07:25.683Z,99.90
2019-04-14T04:09:58.353Z,99.90
2019-04-14T04:12:27.063Z,99.90
2019-04-14T04:14:55.281Z,99.90
2019-04-14T04:17:30.453Z,99.90
2019-04-14T04:20:00.104Z,99.90
2019-04-14T04:22:30.320Z,99.90
2019-04-14T04:25:00.717Z,99.90
2019-04-14T04:27:39.735Z,99.90
2019-04-14T04:30:21.103Z,99.90
2019-04-14T04:32:56.458Z,99.90
2019-04-14T04:35:32.548Z,99.90
2019-04-14T04:38:05.184Z,99.90
2019-04-14T04:40:33.328Z,99.90
2019-04-14T04:43:01.261Z,99.90
2019-04-14T04:45:29.894Z,99.90
2019-04-14T04:47:57.787Z,99.90
2019-04-14T04:50:26.026Z,99.90
2019-04-14T04:52:54.029Z,99.90
2019-04-14T04:55:22.012Z,99.90
2019-04-14T04:57:50.260Z,99.90
2019-04-14T05:00:17.956Z,99.90
2019-04-14T05:02:46.074Z,99.90
2019-04-14T05:05:27.483Z,99.90
2019-04-14T05:07:55.462Z,99.90
2019-04-14T05:10:24.816Z,99.90
2019-04-14T05:12:54.336Z,99.90
2019-04-14T05:15:38.671Z,99.90
2019-04-14T05:18:07.127Z,99.90
2019-04-14T05:20:35.620Z,99.90
2019-04-14T05:23:03.759Z,99.90
2019-04-14T05:25:31.829Z,99.90
2019-04-14T05:28:00.379Z,99.90
2019-04-14T05:30:28.582Z,99.90
2019-04-14T05:32:56.521Z,99.90
2019-04-14T05:35:24.889Z,99.90
2019-04-14T05:37:53.000Z,99.90
2019-04-14T05:40:21.048Z,99.90
2019-04-14T05:42:49.451Z,99.90
2019-04-14T05:45:17.675Z,99.90
2019-04-14T05:47:45.767Z,99.90
2019-04-14T05:50:13.679Z,99.90
2019-04-14T05:52:42.362Z,99.90
2019-04-14T05:55:11.199Z,99.90
2019-04-14T05:57:39.474Z,99.90
2019-04-14T06:00:08.191Z,99.90
2019-04-14T06:02:35.906Z,99.90
2019-04-14T06:05:03.707Z,99.90
2019-04-14T06:07:31.251Z,99.90
2019-04-14T06:09:58.821Z,99.90
2019-04-14T06:12:26.352Z,99.90
2019-04-14T06:14:53.907Z,99.90
2019-04-14T06:17:21.431Z,99.90
2019-04-14T06:19:48.974Z,99.90
2019-04-14T06:22:16.536Z,99.90
2019-04-14T06:24:44.151Z,99.90
2019-04-14T06:27:11.808Z,99.90
2019-04-14T06:29:39.347Z,99.90
2019-04-14T06:32:11.444Z,99.90
2019-04-14T06:34:40.650Z,99.90
2019-04-14T06:37:18.512Z,99.90
2019-04-14T06:39:50.412Z,99.90
2019-04-14T06:42:17.913Z,99.90
2019-04-14T06:44:45.451Z,99.90
2019-04-14T06:47:13.096Z,99.90
2019-04-14T06:49:48.946Z,99.90
2019-04-14T06:52:09.896Z,99.90
2019-04-14T06:54:37.461Z,99.90
2019-04-14T06:57:04.983Z,99.90
2019-04-14T06:59:32.541Z,99.90
2019-04-14T07:02:01.940Z,99.90
2019-04-14T07:04:29.348Z,99.90
2019-04-14T07:06:56.894Z,99.90
2019-04-14T07:09:24.437Z,99.90
2019-04-14T07:11:52.002Z,99.90
2019-04-14T07:14:19.788Z,99.90
2019-04-14T07:16:47.348Z,99.90
2019-04-14T07:19:14.893Z,99.90
2019-04-14T07:21:42.457Z,99.90
2019-04-14T07:24:10.025Z,99.90
2019-04-14T07:26:37.554Z,99.90
2019-04-14T07:29:05.129Z,99.90
2019-04-14T07:31:40.033Z,99.90
2019-04-14T07:34:09.208Z,99.90
2019-04-14T07:36:44.636Z,99.90
2019-04-14T07:39:20.072Z,99.90
2019-04-14T07:41:49.269Z,99.90
2019-04-14T07:44:24.199Z,99.90
2019-04-14T07:46:59.327Z,99.90
2019-04-14T07:49:32.885Z,99.90
2019-04-14T07:52:08.407Z,99.90
2019-04-14T07:54:41.439Z,99.90
2019-04-14T07:57:10.736Z,99.90
2019-04-14T07:59:39.911Z,99.90
2019-04-14T08:02:21.377Z,99.90
2019-04-14T08:04:50.535Z,99.90
2019-04-14T08:07:18.085Z,99.90
2019-04-14T08:09:45.632Z,99.90
2019-04-14T08:12:13.207Z,99.90
2019-04-14T08:14:40.754Z,99.90
2019-04-14T08:17:08.284Z,99.90
2019-04-14T08:19:35.839Z,99.90
2019-04-14T08:22:03.404Z,99.90
2019-04-14T08:24:30.927Z,99.90
2019-04-14T08:26:58.483Z,99.90
2019-04-14T08:29:26.026Z,99.90
2019-04-14T08:31:53.584Z,99.90
2019-04-14T08:34:21.124Z,99.90
2019-04-14T08:36:48.702Z,99.90
2019-04-14T08:39:16.227Z,99.90
2019-04-14T08:41:45.436Z,99.90
2019-04-14T08:44:14.641Z,99.90
2019-04-14T08:47:00.237Z,99.90
2019-04-14T08:49:45.798Z,99.90
2019-04-14T08:52:20.722Z,98.20
2019-04-14T08:54:55.921Z,99.50
2019-04-14T08:57:25.099Z,99.90
2019-04-14T08:59:54.290Z,98.90
2019-04-14T09:02:32.256Z,99.90
2019-04-14T09:05:04.418Z,99.90
2019-04-14T09:07:33.600Z,99.10
2019-04-14T09:10:08.768Z,99.50
2019-04-14T09:12:37.932Z,98.10
2019-04-14T09:15:06.654Z,98.10
2019-04-14T09:17:34.202Z,99.90
2019-04-14T09:20:01.760Z,95.80
2019-04-14T09:22:29.311Z,93.10
2019-04-14T09:24:56.856Z,95.10
2019-04-14T09:27:24.412Z,95.30
2019-04-14T09:29:52.549Z,96.80
2019-04-14T09:32:20.276Z,97.00
2019-04-14T09:34:47.852Z,95.40
2019-04-14T09:37:15.400Z,95.10
2019-04-14T09:39:42.969Z,95.20
2019-04-14T09:42:10.613Z,94.40
2019-04-14T09:44:38.145Z,95.40
2019-04-14T09:47:05.721Z,94.10
2019-04-14T09:49:33.251Z,94.10
2019-04-14T09:52:00.823Z,94.10
2019-04-14T09:54:28.363Z,92.40
2019-04-14T09:56:55.894Z,90.80
2019-04-14T09:59:23.456Z,85.70
2019-04-14T10:01:51.042Z,87.30
2019-04-14T10:04:18.584Z,87.20
2019-04-14T10:06:46.125Z,79.90
2019-04-14T10:09:13.761Z,72.70
2019-04-14T10:11:48.586Z,69.10
2019-04-14T10:14:10.681Z,63.40
2019-04-14T10:16:38.213Z,64.50
2019-04-14T10:19:05.776Z,60.50
2019-04-14T10:21:33.339Z,56.50
2019-04-14T10:24:00.904Z,59.10
2019-04-14T10:26:28.448Z,67.50
2019-04-14T10:28:56.019Z,71.40
2019-04-14T10:31:23.547Z,75.10
2019-04-14T10:33:51.096Z,75.70
2019-04-14T10:36:18.664Z,75.40
2019-04-14T10:38:46.199Z,73.90
2019-04-14T10:41:13.763Z,74.50
2019-04-14T10:43:41.303Z,69.50
2019-04-14T10:46:08.860Z,72.80
2019-04-14T10:48:36.390Z,68.90
2019-04-14T10:51:03.956Z,73.00
2019-04-14T10:53:31.524Z,71.10
2019-04-14T10:55:59.077Z,70.20
2019-04-14T10:58:26.633Z,68.40
2019-04-14T11:00:54.264Z,67.40
2019-04-14T11:03:21.798Z,73.10
2019-04-14T11:05:51.016Z,59.40
2019-04-14T11:08:18.548Z,58.40
2019-04-14T11:10:46.087Z,56.50
2019-04-14T11:13:13.642Z,56.30
2019-04-14T11:15:41.174Z,56.80
2019-04-14T11:18:08.728Z,56.50
2019-04-14T11:20:36.270Z,58.80
2019-04-14T11:23:03.918Z,57.60
2019-04-14T11:25:31.443Z,56.40
2019-04-14T11:27:59.013Z,56.90
2019-04-14T11:30:26.553Z,61.50
2019-04-14T11:32:55.759Z,58.60
2019-04-14T11:35:24.949Z,60.90
2019-04-14T11:38:09.452Z,61.90
2019-04-14T11:40:41.658Z,65.90
2019-04-14T11:43:09.218Z,63.30
2019-04-14T11:45:36.782Z,59.00
2019-04-14T11:48:04.344Z,61.60
2019-04-14T11:50:31.891Z,63.20
2019-04-14T11:52:59.447Z,65.90
2019-04-14T11:55:26.998Z,64.70
2019-04-14T11:57:54.553Z,66.40
2019-04-14T12:00:38.708Z,66.70
2019-04-14T12:03:10.862Z,66.20
2019-04-14T12:05:40.066Z,58.20
2019-04-14T12:08:09.256Z,55.90
2019-04-14T12:10:36.816Z,55.50
2019-04-14T12:13:04.361Z,51.80
2019-04-14T12:15:34.398Z,52.00
2019-04-14T12:18:01.171Z,54.60
2019-04-14T12:20:29.771Z,52.30
2019-04-14T12:22:57.311Z,52.20
2019-04-14T12:25:24.873Z,52.30
2019-04-14T12:27:53.501Z,51.90
2019-04-14T12:30:22.303Z,48.50
2019-04-14T12:32:50.095Z,48.60
2019-04-14T12:35:22.045Z,48.70
2019-04-14T12:37:49.631Z,50.50
2019-04-14T12:40:17.230Z,51.20
2019-04-14T12:42:46.439Z,46.80
2019-04-14T12:45:21.738Z,48.20
2019-04-14T12:47:50.927Z,45.90
2019-04-14T12:50:23.074Z,45.80
2019-04-14T12:52:50.825Z,47.70
2019-04-14T12:55:18.378Z,44.10
2019-04-14T12:57:47.541Z,47.70
2019-04-14T13:00:22.323Z,47.90
2019-04-14T13:02:51.504Z,46.80
2019-04-14T13:05:19.092Z,46.60
2019-04-14T13:07:46.633Z,44.50
2019-04-14T13:10:14.189Z,45.90
2019-04-14T13:12:41.746Z,46.00
2019-04-14T13:15:09.320Z,47.00
2019-04-14T13:17:36.880Z,49.30
2019-04-14T13:20:07.771Z,47.20
2019-04-14T13:22:35.314Z,47.10
2019-04-14T13:25:03.025Z,46.70
2019-04-14T13:27:30.566Z,44.40
2019-04-14T13:29:58.159Z,47.00
2019-04-14T13:32:35.407Z,44.80
2019-04-14T13:34:54.985Z,43.70
2019-04-14T13:37:22.537Z,44.50
2019-04-14T13:39:50.064Z,44.40
2019-04-14T13:42:17.636Z,42.20
2019-04-14T13:44:45.257Z,40.50
2019-04-14T13:47:12.817Z,40.50
2019-04-14T13:49:40.430Z,39.10
2019-04-14T13:52:08.000Z,38.60
2019-04-14T13:54:35.558Z,37.80
2019-04-14T13:57:03.094Z,38.40
2019-04-14T13:59:30.654Z,38.40
2019-04-14T14:01:58.207Z,37.30
2019-04-14T14:04:25.769Z,36.70
2019-04-14T14:06:53.314Z,37.50
2019-04-14T14:09:20.874Z,40.20
2019-04-14T14:12:05.112Z,41.30
2019-04-14T14:14:43.306Z,41.90
2019-04-14T14:17:18.576Z,43.80
2019-04-14T14:19:53.667Z,45.80
2019-04-14T14:22:29.097Z,46.60
2019-04-14T14:25:07.598Z,48.00
2019-04-14T14:27:35.137Z,48.90
2019-04-14T14:30:02.703Z,48.40
2019-04-14T14:32:31.896Z,47.80
2019-04-14T14:34:59.440Z,46.70
2019-04-14T14:37:27.017Z,42.90
2019-04-14T14:39:54.542Z,41.70
2019-04-14T14:42:22.075Z,42.00
2019-04-14T14:44:51.273Z,38.70
2019-04-14T14:47:22.870Z,33.50
2019-04-14T14:49:52.086Z,35.00
2019-04-14T14:52:21.102Z,35.60
2019-04-14T14:54:48.676Z,31.50
2019-04-14T14:57:16.204Z,29.40
2019-04-14T14:59:43.772Z,28.80
2019-04-14T15:02:11.320Z,29.20
2019-04-14T15:04:38.886Z,27.90
2019-04-14T15:07:06.419Z,29.20
2019-04-14T15:09:33.963Z,32.30
2019-04-14T15:12:01.524Z,33.50
2019-04-14T15:14:29.072Z,34.60
2019-04-14T15:16:56.690Z,35.20
2019-04-14T15:19:24.250Z,33.90
2019-04-14T15:21:51.784Z,34.30
2019-04-14T15:24:19.351Z,30.90
2019-04-14T15:26:46.891Z,30.70
2019-04-14T15:29:14.433Z,29.10
2019-04-14T15:31:41.985Z,29.40
2019-04-14T15:34:10.739Z,27.50
2019-04-14T15:36:38.449Z,26.90
2019-04-14T15:39:06.754Z,27.20
2019-04-14T15:41:34.310Z,29.20
2019-04-14T15:44:01.834Z,29.20
2019-04-14T15:46:29.402Z,28.00
2019-04-14T15:48:56.940Z,28.70
2019-04-14T15:51:24.484Z,27.10
2019-04-14T15:53:52.067Z,27.60
2019-04-14T15:56:23.989Z,28.30
2019-04-14T15:58:53.162Z,28.40
2019-04-14T16:01:31.163Z,29.40
2019-04-14T16:04:05.815Z,31.10
2019-04-14T16:06:35.014Z,32.30
2019-04-14T16:09:13.378Z,31.50
2019-04-14T16:11:54.790Z,30.90
2019-04-14T16:14:35.460Z,29.70
2019-04-14T16:17:21.310Z,30.90
2019-04-14T16:19:50.493Z,32.30
2019-04-14T16:22:18.034Z,33.10
2019-04-14T16:24:45.597Z,34.10
2019-04-14T16:27:23.879Z,34.70
2019-04-14T16:30:05.171Z,35.40
2019-04-14T16:32:36.952Z,38.50
2019-04-14T16:35:22.579Z,40.80
2019-04-14T16:37:50.125Z,42.90
2019-04-14T16:40:17.668Z,43.80
2019-04-14T16:42:45.232Z,44.90
2019-04-14T16:45:12.770Z,49.50
2019-04-14T16:47:40.576Z,52.30
2019-04-14T16:50:08.149Z,53.60
2019-04-14T16:52:43.299Z,55.90
2019-04-14T16:55:15.255Z,57.80
2019-04-14T16:58:00.728Z,63.00
2019-04-14T17:00:38.657Z,64.00
2019-04-14T17:03:06.201Z,65.60
2019-04-14T17:05:34.956Z,69.20
2019-04-14T17:08:02.799Z,73.10
2019-04-14T17:10:30.335Z,72.80
2019-04-14T17:12:57.905Z,75.10
2019-04-14T17:15:29.845Z,75.30
2019-04-14T17:18:04.980Z,79.10
2019-04-14T17:20:50.467Z,83.00
2019-04-14T17:23:19.716Z,86.20
2019-04-14T17:25:48.922Z,89.20
2019-04-14T17:28:20.668Z,90.40
2019-04-14T17:30:49.904Z,90.40
2019-04-14T17:33:31.143Z,90.30
2019-04-14T17:36:06.175Z,91.70
2019-04-14T17:38:41.122Z,92.70
2019-04-14T17:41:10.337Z,94.70
2019-04-14T17:43:39.534Z,96.00
2019-04-14T17:46:25.339Z,96.40
2019-04-14T17:49:12.679Z,96.90
2019-04-14T17:51:41.848Z,97.50
2019-04-14T17:54:28.407Z,97.20
2019-04-14T17:57:03.902Z,98.30
2019-04-14T17:59:39.539Z,99.10
2019-04-14T18:02:08.832Z,99.70
2019-04-14T18:04:38.002Z,99.90
2019-04-14T18:07:19.351Z,99.90
2019-04-14T18:09:51.466Z,99.60
2019-04-14T18:12:23.446Z,99.90
2019-04-14T18:15:01.571Z,99.90
2019-04-14T18:17:33.579Z,99.90
2019-04-14T18:20:02.748Z,99.90
2019-04-14T18:22:30.275Z,99.90
2019-04-14T18:24:57.841Z,99.90
2019-04-14T18:27:25.396Z,99.90
2019-04-14T18:30:10.921Z,99.90
2019-04-14T18:32:40.126Z,99.90
2019-04-14T18:35:09.317Z,99.90
2019-04-14T18:37:38.479Z,99.90
2019-04-14T18:40:13.668Z,99.90
2019-04-14T18:42:48.758Z,99.90
2019-04-14T18:45:17.937Z,99.90
2019-04-14T18:47:47.095Z,99.90
2019-04-14T18:50:25.302Z,99.90
2019-04-14T18:53:10.658Z,99.90
2019-04-14T18:55:48.570Z,99.90
2019-04-14T18:58:18.700Z,99.90
2019-04-14T19:00:53.617Z,99.90
2019-04-14T19:03:21.203Z,99.90
2019-04-14T19:05:48.741Z,99.90
2019-04-14T19:08:16.292Z,99.90
2019-04-14T19:10:45.475Z,99.90
2019-04-14T19:13:14.690Z,99.90
2019-04-14T19:15:43.855Z,99.90
2019-04-14T19:18:18.918Z,99.90
2019-04-14T19:20:48.089Z,99.90
2019-04-14T19:23:15.620Z,99.90
2019-04-14T19:25:43.167Z,99.90
2019-04-14T19:28:10.712Z,99.90
2019-04-14T19:30:38.344Z,99.90
2019-04-14T19:33:05.880Z,99.90
2019-04-14T19:35:33.478Z,99.90
2019-04-14T19:38:01.040Z,99.90
2019-04-14T19:40:28.583Z,99.90
2019-04-14T19:42:56.111Z,99.90
2019-04-14T19:45:23.682Z,99.90
2019-04-14T19:47:51.219Z,99.90
2019-04-14T19:50:18.767Z,99.90
2019-04-14T19:52:46.344Z,99.90
2019-04-14T19:55:20.257Z,99.90
2019-04-14T19:57:43.148Z,99.90
2019-04-14T20:00:10.717Z,99.90
2019-04-14T20:02:38.247Z,99.90
2019-04-14T20:05:06.255Z,99.90
2019-04-14T20:07:33.819Z,99.90
2019-04-14T20:10:01.362Z,99.90
2019-04-14T20:12:28.890Z,99.90
2019-04-14T20:14:56.465Z,99.90
2019-04-14T20:17:31.611Z,99.90
2019-04-14T20:20:17.378Z,99.90
2019-04-14T20:22:46.591Z,99.90
2019-04-14T20:25:33.529Z,99.90
2019-04-14T20:28:04.580Z,99.90
2019-04-14T20:30:36.848Z,99.90
2019-04-14T20:33:04.410Z,99.90
2019-04-14T20:35:32.220Z,99.90
2019-04-14T20:37:59.758Z,99.90
2019-04-14T20:40:27.324Z,99.90
2019-04-14T20:42:54.855Z,99.90
2019-04-14T20:45:22.383Z,99.90
2019-04-14T20:47:50.113Z,99.90
2019-04-14T20:50:17.707Z,99.90
2019-04-14T20:52:45.245Z,99.90
2019-04-14T20:55:12.811Z,99.90
2019-04-14T20:57:40.472Z,99.90
2019-04-14T21:00:08.136Z,99.90
2019-04-14T21:02:40.243Z,99.90
2019-04-14T21:05:25.959Z,99.90
2019-04-14T21:08:11.472Z,99.90
2019-04-14T21:10:57.053Z,99.90
2019-04-14T21:13:26.245Z,99.90
2019-04-14T21:16:12.463Z,99.90
2019-04-14T21:18:41.208Z,99.90
2019-04-14T21:21:10.406Z,99.90
2019-04-14T21:23:48.841Z,99.90
2019-04-14T21:26:32.894Z,99.90
2019-04-14T21:29:07.752Z,99.90
2019-04-14T21:31:39.418Z,99.90
2019-04-14T21:34:08.605Z,99.90
2019-04-14T21:36:53.146Z,99.90
2019-04-14T21:39:40.384Z,99.90
2019-04-14T21:42:07.238Z,99.90
2019-04-14T21:44:34.762Z,99.90
2019-04-14T21:47:02.322Z,99.90
2019-04-14T21:49:29.882Z,99.90
2019-04-14T21:51:59.051Z,99.90
2019-04-14T21:54:26.599Z,99.90
2019-04-14T21:57:10.554Z,99.90
2019-04-14T21:59:56.382Z,99.90
2019-04-14T22:02:41.927Z,99.90
2019-04-14T22:05:20.411Z,99.90
2019-04-14T22:08:05.617Z,99.90
2019-04-14T22:10:34.782Z,99.90
2019-04-14T22:13:02.321Z,99.90
2019-04-14T22:15:29.896Z,99.90
2019-04-14T22:17:57.419Z,99.90
2019-04-14T22:20:24.950Z,99.90
2019-04-14T22:22:52.513Z,99.90
2019-04-14T22:25:20.038Z,99.90
2019-04-14T22:27:47.580Z,99.90
2019-04-14T22:30:15.146Z,99.90
2019-04-14T22:32:42.716Z,99.90
2019-04-14T22:35:10.258Z,99.90
2019-04-14T22:37:37.799Z,99.90
2019-04-14T22:40:05.349Z,99.90
2019-04-14T22:42:32.874Z,99.90
2019-04-14T22:45:00.454Z,99.90
2019-04-14T22:47:27.982Z,99.90
2019-04-14T22:49:55.536Z,99.90
2019-04-14T22:52:23.093Z,99.90
2019-04-14T22:54:50.622Z,99.90
2019-04-14T22:57:18.164Z,99.90
2019-04-14T22:59:45.737Z,99.90
2019-04-14T23:02:29.931Z,99.90
2019-04-14T23:05:08.191Z,99.90
2019-04-14T23:07:52.744Z,99.90
2019-04-14T23:10:40.050Z,99.90
2019-04-14T23:13:09.225Z,99.90
2019-04-14T23:15:56.590Z,99.90
2019-04-14T23:18:28.562Z,99.90
2019-04-14T23:21:00.495Z,99.90
2019-04-14T23:23:41.440Z,99.90
2019-04-14T23:26:08.982Z,99.90
2019-04-14T23:28:36.554Z,99.90
2019-04-14T23:31:04.079Z,99.90
2019-04-14T23:33:31.631Z,99.90
2019-04-14T23:35:59.189Z,99.90
2019-04-14T23:38:26.809Z,99.90
2019-04-14T23:40:54.350Z,99.90
2019-04-14T23:43:21.889Z,99.90
2019-04-14T23:45:49.449Z,99.90
2019-04-14T23:48:16.974Z,99.90
2019-04-14T23:50:44.543Z,99.90
2019-04-14T23:53:12.085Z,99.90
2019-04-14T23:55:39.623Z,99.90
2019-04-14T23:58:07.173Z,99.90
